Time;durP1;ratioP1;P1;durP2;ratioP2;P2;SDS_P1;SDS_P2;PMS_P1;PMS_P2;Temp;Humidity;BMP_temperature;BMP_pressure;BME280_temperature;BME280_humidity;BME280_pressure;Samples;Min_cycle;Max_cycle;Signal;HPM_P1;HPM_P2
2023/01/01 00:01:19;;;;;;;27.03;11.67;;;;;;;;;;4957425;28;20552;-68
2023/01/01 00:03:47;;;;;;;35.00;12.87;;;;;;;;;;4942169;28;20134;-67
2023/01/01 00:06:13;;;;;;;32.57;13.50;;;;;;;;;;4957165;28;20072;-68
2023/01/01 00:08:39;;;;;;;29.80;12.97;;;;;;;;;;4971726;28;20531;-68
2023/01/01 00:11:06;;;;;;;31.80;13.07;;;;;;;;;;4954570;28;20471;-67
2023/01/01 00:13:32;;;;;;;30.33;12.20;;;;;;;;;;4938726;28;20034;-68
2023/01/01 00:16:08;;;;;;;27.50;12.33;;;;;;;;;;4954781;28;20414;-68
2023/01/01 00:18:35;;;;;;;27.30;12.27;;;;;;;;;;4972448;28;20639;-68
2023/01/01 00:21:01;;;;;;;33.53;12.43;;;;;;;;;;4972567;28;20038;-68
2023/01/01 00:23:27;;;;;;;36.73;13.40;;;;;;;;;;4939943;28;20039;-68
2023/01/01 00:25:52;;;;;;;29.00;12.43;;;;;;;;;;4974523;28;20105;-69
2023/01/01 00:28:18;;;;;;;31.87;12.73;;;;;;;;;;4981886;28;20079;-68
2023/01/01 00:30:43;;;;;;;37.30;14.73;;;;;;;;;;4993399;28;20030;-68
2023/01/01 00:33:09;;;;;;;36.40;13.57;;;;;;;;;;4976821;28;20093;-68
2023/01/01 00:35:34;;;;;;;29.07;11.60;;;;;;;;;;4994161;28;20045;-68
2023/01/01 00:38:00;;;;;;;29.40;13.30;;;;;;;;;;4977110;28;20038;-67
2023/01/01 00:40:25;;;;;;;31.47;13.53;;;;;;;;;;4993638;28;20152;-69
2023/01/01 00:42:51;;;;;;;44.03;13.23;;;;;;;;;;4992710;28;20361;-67
2023/01/01 00:45:16;;;;;;;39.57;14.80;;;;;;;;;;4992553;28;20038;-66
2023/01/01 00:47:42;;;;;;;39.73;13.97;;;;;;;;;;4992559;28;20070;-66
2023/01/01 00:50:08;;;;;;;31.40;12.67;;;;;;;;;;4992445;28;20034;-68
2023/01/01 00:52:33;;;;;;;37.63;13.37;;;;;;;;;;4975956;28;20160;-69
2023/01/01 00:54:59;;;;;;;37.53;12.63;;;;;;;;;;4959834;28;20030;-69
2023/01/01 00:57:24;;;;;;;33.07;12.83;;;;;;;;;;4975650;28;20507;-69
2023/01/01 00:59:50;;;;;;;35.83;12.80;;;;;;;;;;4960277;28;20322;-70
2023/01/01 01:02:15;;;;;;;38.00;13.83;;;;;;;;;;4976387;28;20042;-70
2023/01/01 01:04:41;;;;;;;34.37;12.50;;;;;;;;;;4992231;28;20471;-70
2023/01/01 01:07:09;;;;;;;36.57;13.77;;;;;;;;;;4976137;28;20092;-70
2023/01/01 01:09:36;;;;;;;38.80;14.23;;;;;;;;;;4992336;28;20145;-69
2023/01/01 01:12:02;;;;;;;26.37;12.33;;;;;;;;;;4960336;28;20145;-70
2023/01/01 01:14:27;;;;;;;38.80;14.27;;;;;;;;;;4959218;28;20070;-70
2023/01/01 01:16:53;;;;;;;30.40;11.97;;;;;;;;;;4975823;28;20125;-73
2023/01/01 01:19:22;;;;;;;30.23;12.17;;;;;;;;;;4959774;28;20384;-71
2023/01/01 01:21:48;;;;;;;31.43;12.50;;;;;;;;;;4973600;28;20041;-70
2023/01/01 01:24:14;;;;;;;31.83;12.80;;;;;;;;;;4965757;28;20034;-72
2023/01/01 01:26:40;;;;;;;37.83;12.87;;;;;;;;;;4947979;28;20031;-71
2023/01/01 01:29:06;;;;;;;37.63;12.20;;;;;;;;;;4965481;28;20148;-71
2023/01/01 01:31:35;;;;;;;39.40;13.17;;;;;;;;;;4982121;28;20035;-71
2023/01/01 01:34:00;;;;;;;42.60;12.40;;;;;;;;;;4945536;28;20038;-71
2023/01/01 01:36:27;;;;;;;31.57;11.60;;;;;;;;;;4964850;28;20034;-71
2023/01/01 01:38:53;;;;;;;48.40;12.47;;;;;;;;;;4977174;28;20043;-71
2023/01/01 01:41:23;;;;;;;31.43;11.17;;;;;;;;;;4957961;28;20045;-71
2023/01/01 01:43:50;;;;;;;37.30;10.93;;;;;;;;;;4947373;28;20026;-71
2023/01/01 01:46:19;;;;;;;25.93;10.43;;;;;;;;;;4964443;28;20033;-70
2023/01/01 01:48:47;;;;;;;41.40;13.00;;;;;;;;;;4965645;28;20038;-71
2023/01/01 01:51:14;;;;;;;32.30;11.27;;;;;;;;;;4964827;28;20046;-72
2023/01/01 01:53:43;;;;;;;35.00;10.80;;;;;;;;;;4964568;28;20068;-72
2023/01/01 01:56:13;;;;;;;27.57;10.80;;;;;;;;;;4981729;28;20034;-71
2023/01/01 01:58:39;;;;;;;28.40;11.80;;;;;;;;;;4965072;28;20031;-71
2023/01/01 02:01:05;;;;;;;26.67;10.50;;;;;;;;;;4979868;28;20340;-69
2023/01/01 02:03:32;;;;;;;22.93;10.63;;;;;;;;;;4963244;28;20126;-69
2023/01/01 02:05:58;;;;;;;24.57;10.40;;;;;;;;;;4980425;28;20030;-70
2023/01/01 02:08:24;;;;;;;22.47;9.40;;;;;;;;;;4949564;28;20481;-70
2023/01/01 02:10:50;;;;;;;25.53;10.40;;;;;;;;;;4982296;28;20045;-70
2023/01/01 02:13:16;;;;;;;22.17;9.07;;;;;;;;;;4968492;28;20057;-70
2023/01/01 02:15:53;;;;;;;20.77;9.30;;;;;;;;;;4960817;28;20041;-71
2023/01/01 02:18:23;;;;;;;21.87;8.83;;;;;;;;;;4979060;28;20097;-70
2023/01/01 02:20:54;;;;;;;17.92;8.32;;;;;;;;;;4980168;28;20358;-73
2023/01/01 02:23:19;;;;;;;20.95;9.15;;;;;;;;;;4965232;28;20038;-70
2023/01/01 02:25:45;;;;;;;18.73;9.50;;;;;;;;;;4950007;28;20350;-71
2023/01/01 02:28:22;;;;;;;24.70;9.13;;;;;;;;;;4954034;28;20038;-71
2023/01/01 02:30:49;;;;;;;19.27;8.40;;;;;;;;;;4966029;28;20043;-70
2023/01/01 02:33:18;;;;;;;20.90;8.63;;;;;;;;;;4966997;28;20035;-70
2023/01/01 02:35:49;;;;;;;17.40;8.17;;;;;;;;;;4980902;28;20039;-70
2023/01/01 02:38:15;;;;;;;;;;;;;;;;;;4951158;28;20054;-70
2023/01/01 02:40:43;;;;;;;17.10;8.63;;;;;;;;;;4952491;28;19914;-70
2023/01/01 02:43:08;;;;;;;18.03;8.43;;;;;;;;;;4967566;28;20035;-70
2023/01/01 02:45:34;;;;;;;11.10;7.67;;;;;;;;;;4983530;28;20117;-70
2023/01/01 02:48:26;;;;;;;16.03;7.33;;;;;;;;;;4984499;28;20464;-68
2023/01/01 02:50:52;;;;;;;14.53;7.37;;;;;;;;;;4983306;28;20050;-70
2023/01/01 02:53:30;;;;;;;12.97;7.80;;;;;;;;;;4966584;28;20042;-69
2023/01/01 02:56:05;;;;;;;13.57;6.90;;;;;;;;;;4950544;28;20045;-69
2023/01/01 03:01:27;;;;;;;16.77;7.43;;;;;;;;;;4957103;28;20034;-68
2023/01/01 03:04:01;;;;;;;15.53;7.93;;;;;;;;;;4956566;28;20027;-69
2023/01/01 03:06:33;;;;;;;17.23;8.00;;;;;;;;;;4956525;28;20042;-70
2023/01/01 03:09:14;;;;;;;14.70;7.80;;;;;;;;;;4956771;28;20035;-70
2023/01/01 03:11:47;;;;;;;19.20;8.30;;;;;;;;;;4957006;28;20492;-70
2023/01/01 03:14:18;;;;;;;18.97;8.40;;;;;;;;;;4956712;28;20042;-70
2023/01/01 03:16:47;;;;;;;17.90;8.30;;;;;;;;;;4973418;28;20055;-70
2023/01/01 03:19:12;;;;;;;14.07;8.07;;;;;;;;;;4941996;28;20081;-71
2023/01/01 03:21:47;;;;;;;16.70;8.43;;;;;;;;;;4973965;28;20132;-70
2023/01/01 03:24:33;;;;;;;17.83;8.33;;;;;;;;;;4941885;28;20034;-70
2023/01/01 03:27:03;;;;;;;17.37;8.40;;;;;;;;;;4941830;28;20042;-69
2023/01/01 03:29:30;;;;;;;13.27;8.10;;;;;;;;;;4941576;28;20034;-69
2023/01/01 03:31:58;;;;;;;16.57;8.50;;;;;;;;;;4973459;28;20042;-69
2023/01/01 03:34:29;;;;;;;16.03;8.33;;;;;;;;;;4973696;28;20054;-70
2023/01/01 03:36:54;;;;;;;;;;;;;;;;;;4957196;28;20030;-69
2023/01/01 03:39:22;;;;;;;15.80;8.73;;;;;;;;;;4957664;28;19914;-71
2023/01/01 03:41:55;;;;;;;16.03;9.10;;;;;;;;;;4957655;28;20041;-69
2023/01/01 03:44:24;;;;;;;15.90;8.23;;;;;;;;;;4957485;28;20037;-67
2023/01/01 03:46:50;;;;;;;20.20;9.50;;;;;;;;;;4974367;28;20238;-69
2023/01/01 03:49:16;;;;;;;20.37;9.13;;;;;;;;;;4957342;28;20506;-68
2023/01/01 03:51:51;;;;;;;25.70;9.47;;;;;;;;;;4973261;28;20058;-67
2023/01/01 03:54:19;;;;;;;19.43;8.53;;;;;;;;;;4973427;28;20043;-68
2023/01/01 03:56:47;;;;;;;24.33;10.23;;;;;;;;;;4973303;28;20046;-68
2023/01/01 03:59:33;;;;;;;21.43;9.93;;;;;;;;;;4941354;28;20035;-67
2023/01/01 04:02:01;;;;;;;24.90;10.83;;;;;;;;;;4957507;28;20058;-68
2023/01/01 04:04:27;;;;;;;25.10;10.43;;;;;;;;;;4951680;28;20033;-67
2023/01/01 04:06:53;;;;;;;25.10;10.67;;;;;;;;;;4973257;28;20100;-67
2023/01/01 04:09:22;;;;;;;21.93;10.23;;;;;;;;;;4973230;28;20035;-67
2023/01/01 04:12:06;;;;;;;27.30;11.03;;;;;;;;;;4973032;28;20477;-67
2023/01/01 04:14:32;;;;;;;23.80;11.17;;;;;;;;;;4956828;28;20485;-68
2023/01/01 04:16:59;;;;;;;23.97;10.97;;;;;;;;;;4956792;28;20496;-67
2023/01/01 04:19:24;;;;;;;27.10;11.77;;;;;;;;;;4956816;28;20098;-66
2023/01/01 04:21:50;;;;;;;27.93;12.07;;;;;;;;;;4972879;28;20440;-66
2023/01/01 04:24:16;;;;;;;30.13;12.87;;;;;;;;;;4973460;28;20532;-66
2023/01/01 04:26:41;;;;;;;27.33;12.53;;;;;;;;;;4972508;28;20043;-67
2023/01/01 04:29:07;;;;;;;25.77;11.23;;;;;;;;;;4989236;28;20035;-66
2023/01/01 04:31:33;;;;;;;27.87;12.63;;;;;;;;;;4972807;28;20461;-68
2023/01/01 04:33:59;;;;;;;33.40;12.50;;;;;;;;;;4956416;28;20066;-67
2023/01/01 04:36:24;;;;;;;29.27;11.70;;;;;;;;;;4956657;28;20073;-67
2023/01/01 04:38:50;;;;;;;28.07;12.13;;;;;;;;;;4972306;28;20519;-66
2023/01/01 04:41:15;;;;;;;24.27;11.23;;;;;;;;;;4972313;28;20039;-66
2023/01/01 04:43:43;;;;;;;25.80;11.17;;;;;;;;;;4988354;28;20041;-67
2023/01/01 04:46:11;;;;;;;25.93;11.47;;;;;;;;;;4972113;28;20046;-67
2023/01/01 04:48:36;;;;;;;25.83;10.33;;;;;;;;;;4972456;28;20145;-67
2023/01/01 04:51:03;;;;;;;25.10;11.80;;;;;;;;;;4972305;28;20134;-67
2023/01/01 04:53:30;;;;;;;29.00;11.67;;;;;;;;;;4988257;28;20046;-68
2023/01/01 04:55:55;;;;;;;27.67;10.70;;;;;;;;;;4955726;28;20043;-67
2023/01/01 04:58:21;;;;;;;26.10;11.17;;;;;;;;;;4972015;28;20140;-67
2023/01/01 05:00:50;;;;;;;30.77;12.03;;;;;;;;;;4955607;28;20039;-67
2023/01/01 05:03:16;;;;;;;33.37;12.37;;;;;;;;;;4939744;28;20129;-68
2023/01/01 05:05:41;;;;;;;37.43;13.17;;;;;;;;;;4971312;28;20042;-69
2023/01/01 05:08:07;;;;;;;40.00;13.10;;;;;;;;;;4955604;28;20049;-68
2023/01/01 05:10:32;;;;;;;40.03;13.87;;;;;;;;;;4955926;28;20046;-68
2023/01/01 05:12:58;;;;;;;39.00;13.83;;;;;;;;;;4955384;28;20093;-68
2023/01/01 05:15:23;;;;;;;47.50;14.53;;;;;;;;;;4955208;28;20440;-67
2023/01/01 05:17:49;;;;;;;43.50;14.67;;;;;;;;;;4971769;28;20469;-68
2023/01/01 05:20:14;;;;;;;31.97;12.60;;;;;;;;;;4971131;28;20039;-68
2023/01/01 05:22:40;;;;;;;35.70;12.87;;;;;;;;;;4971709;28;20125;-68
2023/01/01 05:25:06;;;;;;;30.30;12.83;;;;;;;;;;4955305;28;20039;-68
2023/01/01 05:27:31;;;;;;;36.00;13.73;;;;;;;;;;4971136;28;20060;-69
2023/01/01 05:29:57;;;;;;;32.60;12.37;;;;;;;;;;4955449;28;20120;-68
2023/01/01 05:32:23;;;;;;;27.03;11.47;;;;;;;;;;4971272;28;20432;-68
2023/01/01 05:34:48;;;;;;;27.07;11.70;;;;;;;;;;4955186;28;20049;-68
2023/01/01 05:37:14;;;;;;;25.73;11.03;;;;;;;;;;4955290;28;20034;-68
2023/01/01 05:39:39;;;;;;;24.03;11.20;;;;;;;;;;4971272;28;20362;-67
2023/01/01 05:42:05;;;;;;;26.37;11.57;;;;;;;;;;4971333;28;20042;-67
2023/01/01 05:44:30;;;;;;;21.40;10.17;;;;;;;;;;4955168;28;20042;-69
2023/01/01 05:46:58;;;;;;;19.07;9.80;;;;;;;;;;4939432;28;20117;-68
2023/01/01 05:49:23;;;;;;;17.67;9.50;;;;;;;;;;4971154;28;20362;-68
2023/01/01 05:51:49;;;;;;;13.17;8.57;;;;;;;;;;4954544;28;20078;-68
2023/01/01 05:54:14;;;;;;;17.97;9.77;;;;;;;;;;4955111;28;20050;-68
2023/01/01 05:56:40;;;;;;;14.87;9.53;;;;;;;;;;4954883;28;20121;-70
2023/01/01 05:59:06;;;;;;;14.47;8.77;;;;;;;;;;4954828;28;20043;-68
2023/01/01 06:01:31;;;;;;;14.80;8.67;;;;;;;;;;4938671;28;20488;-68
2023/01/01 06:03:58;;;;;;;16.27;8.90;;;;;;;;;;4938858;28;20035;-68
2023/01/01 06:06:24;;;;;;;16.90;9.00;;;;;;;;;;4970689;28;20039;-68
2023/01/01 06:08:51;;;;;;;11.87;7.50;;;;;;;;;;4954867;28;20043;-68
2023/01/01 06:11:17;;;;;;;15.33;8.83;;;;;;;;;;4970779;28;20035;-68
2023/01/01 06:13:42;;;;;;;17.73;9.47;;;;;;;;;;4970779;28;20080;-68
2023/01/01 06:16:08;;;;;;;18.67;9.17;;;;;;;;;;4954700;28;20035;-68
2023/01/01 06:18:34;;;;;;;17.50;8.93;;;;;;;;;;4939064;28;20086;-69
2023/01/01 06:21:07;;;;;;;17.07;8.90;;;;;;;;;;4954643;28;20062;-67
2023/01/01 06:23:32;;;;;;;14.57;8.70;;;;;;;;;;4954802;28;20473;-67
2023/01/01 06:26:03;;;;;;;17.00;8.90;;;;;;;;;;4970560;28;20169;-67
2023/01/01 06:28:29;;;;;;;37.03;10.60;;;;;;;;;;4954418;28;20042;-67
2023/01/01 06:30:58;;;;;;;17.73;8.70;;;;;;;;;;4954315;28;20039;-68
2023/01/01 06:33:23;;;;;;;19.70;9.67;;;;;;;;;;4954429;28;20046;-68
2023/01/01 06:35:49;;;;;;;18.47;9.90;;;;;;;;;;4970752;28;20053;-69
2023/01/01 06:38:14;;;;;;;17.30;9.07;;;;;;;;;;4938262;28;20105;-70
2023/01/01 06:40:40;;;;;;;17.80;8.97;;;;;;;;;;4954898;28;20030;-69
2023/01/01 06:43:05;;;;;;;21.50;8.90;;;;;;;;;;4954808;28;20050;-70
2023/01/01 06:45:31;;;;;;;30.47;9.50;;;;;;;;;;4954239;28;20469;-68
2023/01/01 06:47:56;;;;;;;404.83;23.05;;;;;;;;;;4970389;28;20047;-68
2023/01/01 06:50:22;;;;;;;19.97;8.63;;;;;;;;;;4954257;28;20030;-67
2023/01/01 06:52:50;;;;;;;102.87;10.33;;;;;;;;;;4970136;28;20054;-67
2023/01/01 06:55:15;;;;;;;177.67;14.50;;;;;;;;;;4970152;28;20057;-68
2023/01/01 06:57:42;;;;;;;114.00;12.17;;;;;;;;;;4971189;28;20034;-68
2023/01/01 07:00:08;;;;;;;34.13;10.30;;;;;;;;;;4970418;28;20030;-68
2023/01/01 07:02:33;;;;;;;97.33;10.67;;;;;;;;;;4954176;28;20046;-69
2023/01/01 07:04:59;;;;;;;99.83;11.27;;;;;;;;;;4970435;28;20058;-68
2023/01/01 07:07:24;;;;;;;186.77;13.25;;;;;;;;;;4953872;28;20050;-67
2023/01/01 07:09:50;;;;;;;106.77;11.03;;;;;;;;;;4938145;28;20035;-68
2023/01/01 07:12:16;;;;;;;332.20;18.93;;;;;;;;;;4955767;28;20469;-67
2023/01/01 07:14:41;;;;;;;109.43;11.50;;;;;;;;;;4957873;28;20042;-67
2023/01/01 07:17:07;;;;;;;48.43;9.77;;;;;;;;;;4967359;28;20053;-68
2023/01/01 07:19:32;;;;;;;40.92;10.07;;;;;;;;;;4993686;28;20492;-68
2023/01/01 07:22:00;;;;;;;24.97;9.20;;;;;;;;;;4972445;28;20125;-67
2023/01/01 07:24:26;;;;;;;16.80;8.52;;;;;;;;;;4957566;28;20035;-68
2023/01/01 07:26:51;;;;;;;22.47;7.77;;;;;;;;;;4970490;28;20103;-68
2023/01/01 07:29:17;;;;;;;26.13;9.43;;;;;;;;;;4976311;28;20023;-68
2023/01/01 07:31:43;;;;;;;13.13;7.93;;;;;;;;;;4949736;28;20030;-67
2023/01/01 07:34:13;;;;;;;27.30;9.18;;;;;;;;;;4951560;28;20450;-68
2023/01/01 07:36:40;;;;;;;17.17;8.35;;;;;;;;;;4984407;28;20041;-69
2023/01/01 07:39:05;;;;;;;14.95;7.43;;;;;;;;;;4982541;28;20386;-68
2023/01/01 07:41:31;;;;;;;15.93;7.88;;;;;;;;;;4951579;28;20041;-68
2023/01/01 07:43:58;;;;;;;15.82;8.38;;;;;;;;;;4967422;28;20030;-68
2023/01/01 07:46:24;;;;;;;15.20;7.50;;;;;;;;;;4965865;28;20038;-67
2023/01/01 07:48:49;;;;;;;11.90;7.80;;;;;;;;;;4966938;28;20377;-66
2023/01/01 07:51:15;;;;;;;12.60;7.30;;;;;;;;;;4967028;28;20132;-66
2023/01/01 07:53:41;;;;;;;11.55;7.47;;;;;;;;;;4981820;28;20042;-68
2023/01/01 07:56:06;;;;;;;14.23;7.20;;;;;;;;;;4951692;28;20030;-68
2023/01/01 07:58:32;;;;;;;12.75;7.00;;;;;;;;;;4982726;28;20027;-67
2023/01/01 08:00:57;;;;;;;12.35;6.97;;;;;;;;;;4982707;28;20074;-68
2023/01/01 08:03:37;;;;;;;9.73;6.70;;;;;;;;;;4968350;28;20118;-67
2023/01/01 08:06:24;;;;;;;16.08;7.25;;;;;;;;;;4979330;28;20053;-68
2023/01/01 08:08:50;;;;;;;10.82;6.75;;;;;;;;;;4949352;28;20382;-70
2023/01/01 08:11:15;;;;;;;12.68;7.32;;;;;;;;;;4960906;28;20038;-73
2023/01/01 08:13:41;;;;;;;12.73;6.95;;;;;;;;;;4993566;28;20034;-72
2023/01/01 08:16:07;;;;;;;13.77;7.72;;;;;;;;;;4977214;28;20034;-70
2023/01/01 08:18:32;;;;;;;15.55;7.30;;;;;;;;;;4977198;28;20037;-71
2023/01/01 08:20:58;;;;;;;13.85;6.68;;;;;;;;;;4976992;28;20034;-72
2023/01/01 08:23:24;;;;;;;11.68;7.03;;;;;;;;;;4976934;28;20089;-71
2023/01/01 08:25:49;;;;;;;16.63;7.20;;;;;;;;;;4977394;28;20038;-73
2023/01/01 08:28:15;;;;;;;14.57;8.93;;;;;;;;;;4976862;28;20086;-74
2023/01/01 08:30:41;;;;;;;12.05;7.22;;;;;;;;;;4960646;28;20049;-72
2023/01/01 08:33:06;;;;;;;12.52;6.75;;;;;;;;;;4951834;28;20035;-72
2023/01/01 08:35:32;;;;;;;19.25;6.65;;;;;;;;;;4977339;28;20053;-73
2023/01/01 08:37:58;;;;;;;12.73;7.22;;;;;;;;;;4965040;28;20027;-70
2023/01/01 08:40:23;;;;;;;11.10;6.95;;;;;;;;;;4965484;28;20034;-70
2023/01/01 08:42:49;;;;;;;12.60;6.47;;;;;;;;;;4985271;28;20034;-69
2023/01/01 08:45:14;;;;;;;17.58;7.20;;;;;;;;;;4960085;28;20156;-74
2023/01/01 08:47:40;;;;;;;18.08;7.10;;;;;;;;;;4959521;28;20056;-71
2023/01/01 08:50:06;;;;;;;12.98;6.65;;;;;;;;;;4976535;28;20333;-72
2023/01/01 08:52:31;;;;;;;19.77;7.22;;;;;;;;;;4974275;28;20473;-72
2023/01/01 08:54:57;;;;;;;23.50;6.85;;;;;;;;;;4973797;28;20066;-74
2023/01/01 08:57:23;;;;;;;12.48;7.00;;;;;;;;;;4989845;28;20484;-71
2023/01/01 08:59:48;;;;;;;25.17;7.57;;;;;;;;;;4989121;28;20524;-69
2023/01/01 09:02:14;;;;;;;16.45;6.85;;;;;;;;;;4973926;28;20038;-67
2023/01/01 09:04:39;;;;;;;113.18;11.50;;;;;;;;;;4991656;28;20034;-71
2023/01/01 09:07:07;;;;;;;60.72;8.73;;;;;;;;;;4975926;28;20046;-73
2023/01/01 09:09:33;;;;;;;15.93;7.57;;;;;;;;;;4976132;28;20469;-74
2023/01/01 09:12:02;;;;;;;15.68;7.72;;;;;;;;;;4992176;28;20064;-74
2023/01/01 09:14:28;;;;;;;11.25;7.38;;;;;;;;;;4976183;28;20034;-73
2023/01/01 09:16:54;;;;;;;29.30;8.98;;;;;;;;;;4992234;28;20333;-73
2023/01/01 09:19:20;;;;;;;13.82;6.95;;;;;;;;;;4975947;28;20030;-73
2023/01/01 09:21:46;;;;;;;624.30;36.28;;;;;;;;;;4992316;28;20049;-73
2023/01/01 09:24:11;;;;;;;17.02;6.95;;;;;;;;;;4992194;28;20046;-73
2023/01/01 09:26:37;;;;;;;37.70;8.82;;;;;;;;;;4958753;28;20041;-71
2023/01/01 09:29:02;;;;;;;19.10;7.97;;;;;;;;;;4981284;28;20472;-72
2023/01/01 09:31:28;;;;;;;21.88;8.02;;;;;;;;;;4949696;28;20463;-72
2023/01/01 09:33:54;;;;;;;302.83;19.38;;;;;;;;;;4963017;28;20034;-74
2023/01/01 09:36:19;;;;;;;320.88;19.52;;;;;;;;;;4948309;28;20050;-71
2023/01/01 09:38:48;;;;;;;259.20;18.40;;;;;;;;;;4964000;28;20031;-74
2023/01/01 09:41:14;;;;;;;263.73;20.33;;;;;;;;;;4946823;28;20034;-72
2023/01/01 09:43:57;;;;;;;331.50;19.83;;;;;;;;;;4981677;28;20047;-73
2023/01/01 09:46:25;;;;;;;234.38;17.52;;;;;;;;;;4962857;28;20185;-72
2023/01/01 09:48:58;;;;;;;224.85;16.27;;;;;;;;;;4951641;28;20038;-72
2023/01/01 09:51:25;;;;;;;20.42;8.75;;;;;;;;;;4955084;28;20596;-73
2023/01/01 09:54:00;;;;;;;94.40;11.90;;;;;;;;;;4971289;28;20049;-73
2023/01/01 09:56:26;;;;;;;306.75;20.02;;;;;;;;;;4947256;28;20040;-73
2023/01/01 09:58:54;;;;;;;322.35;20.38;;;;;;;;;;4953945;28;20042;-71
2023/01/01 10:01:38;;;;;;;240.68;19.23;;;;;;;;;;4961456;28;20030;-73
2023/01/01 10:04:10;;;;;;;187.23;16.65;;;;;;;;;;4958779;28;20428;-69
2023/01/01 10:06:39;;;;;;;107.80;13.27;;;;;;;;;;4958656;28;20099;-73
2023/01/01 10:09:08;;;;;;;161.88;14.27;;;;;;;;;;4968373;28;20033;-72
2023/01/01 10:11:48;;;;;;;24.63;9.90;;;;;;;;;;4976169;28;20053;-73
2023/01/01 10:14:34;;;;;;;28.63;10.15;;;;;;;;;;4988458;28;20065;-73
2023/01/01 10:17:02;;;;;;;20.20;9.73;;;;;;;;;;4975075;28;20391;-73
2023/01/01 10:19:31;;;;;;;16.20;8.98;;;;;;;;;;4991428;28;20173;-71
2023/01/01 10:22:01;;;;;;;15.38;8.90;;;;;;;;;;4962243;28;20085;-72
2023/01/01 10:24:33;;;;;;;139.15;14.15;;;;;;;;;;4939692;28;20030;-74
2023/01/01 10:27:01;;;;;;;14.50;7.85;;;;;;;;;;4941041;28;20051;-73
2023/01/01 10:29:31;;;;;;;14.25;7.50;;;;;;;;;;4940574;28;20031;-72
2023/01/01 10:32:05;;;;;;;14.63;8.45;;;;;;;;;;4957137;28;20039;-72
2023/01/01 10:34:32;;;;;;;13.23;8.32;;;;;;;;;;4977946;28;20037;-71
2023/01/01 10:37:01;;;;;;;14.57;8.40;;;;;;;;;;4965227;28;20054;-72
2023/01/01 10:39:31;;;;;;;16.30;8.20;;;;;;;;;;4980111;28;20045;-72
2023/01/01 10:41:59;;;;;;;11.55;7.45;;;;;;;;;;4983775;28;20121;-71
2023/01/01 10:44:29;;;;;;;21.63;9.02;;;;;;;;;;4988971;28;20031;-73
2023/01/01 10:47:00;;;;;;;14.57;8.40;;;;;;;;;;4983280;28;20047;-72
2023/01/01 10:49:25;;;;;;;;;;;;;;;;;;4988869;28;20469;-72
2023/01/01 10:51:52;;;;;;;15.80;8.63;;;;;;;;;;4960689;28;19928;-70
2023/01/01 10:54:30;;;;;;;15.80;8.38;;;;;;;;;;4971496;28;20030;-72
2023/01/01 10:56:56;;;;;;;12.55;8.07;;;;;;;;;;4983174;28;20058;-72
2023/01/01 10:59:33;;;;;;;16.55;8.65;;;;;;;;;;4960437;28;20085;-71
2023/01/01 11:02:16;;;;;;;13.02;7.80;;;;;;;;;;4984402;28;20065;-75
2023/01/01 11:04:41;;;;;;;15.82;8.95;;;;;;;;;;4985408;28;20392;-73
2023/01/01 11:07:07;;;;;;;12.50;7.75;;;;;;;;;;4968631;28;20034;-73
2023/01/01 11:09:37;;;;;;;13.68;8.40;;;;;;;;;;4959657;28;20042;-71
2023/01/01 11:12:04;;;;;;;13.90;7.82;;;;;;;;;;4991929;28;20037;-76
2023/01/01 11:14:37;;;;;;;12.80;7.95;;;;;;;;;;4966197;28;20473;-73
2023/01/01 11:17:03;;;;;;;11.00;7.55;;;;;;;;;;4984637;28;20984;-71
2023/01/01 11:19:35;;;;;;;10.70;7.75;;;;;;;;;;4985361;28;20465;-72
2023/01/01 11:22:01;;;;;;;13.73;7.57;;;;;;;;;;4974831;28;20050;-75
2023/01/01 11:24:28;;;;;;;13.20;7.68;;;;;;;;;;4995729;28;20044;-73
2023/01/01 11:27:11;;;;;;;12.32;7.85;;;;;;;;;;4962695;28;20042;-73
2023/01/01 11:29:37;;;;;;;13.52;8.25;;;;;;;;;;4979019;28;20038;-77
2023/01/01 11:32:05;;;;;;;12.75;7.95;;;;;;;;;;4994373;28;20042;-69
2023/01/01 11:34:42;;;;;;;9.55;7.10;;;;;;;;;;4992059;28;20086;-72
2023/01/01 11:37:10;;;;;;;11.82;7.55;;;;;;;;;;4951773;28;20035;-74
2023/01/01 11:39:36;;;;;;;8.88;6.93;;;;;;;;;;4959856;28;20392;-73
2023/01/01 11:42:03;;;;;;;16.17;7.25;;;;;;;;;;4958005;28;20126;-73
2023/01/01 11:44:28;;;;;;;13.88;7.38;;;;;;;;;;4957685;28;20054;-71
2023/01/01 11:46:54;;;;;;;12.90;7.28;;;;;;;;;;4957600;28;20077;-74
2023/01/01 11:49:22;;;;;;;18.33;7.10;;;;;;;;;;4973523;28;20035;-72
2023/01/01 11:51:48;;;;;;;9.27;6.47;;;;;;;;;;4940988;28;20054;-72
2023/01/01 11:54:35;;;;;;;10.90;7.25;;;;;;;;;;4987449;28;20254;-72
2023/01/01 11:57:15;;;;;;;9.50;6.40;;;;;;;;;;4991146;28;20034;-73
2023/01/01 11:59:54;;;;;;;11.50;7.40;;;;;;;;;;4992356;28;20030;-73
2023/01/01 12:02:31;;;;;;;12.25;7.57;;;;;;;;;;4975690;28;20457;-72
2023/01/01 12:05:04;;;;;;;12.50;7.10;;;;;;;;;;4975148;28;20088;-72
2023/01/01 12:07:33;;;;;;;11.23;6.82;;;;;;;;;;4978547;28;20097;-71
2023/01/01 12:10:16;;;;;;;11.77;7.10;;;;;;;;;;4974110;28;20125;-72
2023/01/01 12:12:49;;;;;;;10.10;6.90;;;;;;;;;;4946316;28;20049;-73
2023/01/01 12:15:18;;;;;;;11.35;6.88;;;;;;;;;;4959179;28;20111;-72
2023/01/01 12:17:48;;;;;;;13.43;6.93;;;;;;;;;;4973367;28;20108;-73
2023/01/01 12:20:33;;;;;;;11.40;7.75;;;;;;;;;;4981086;28;20117;-74
2023/01/01 12:23:00;;;;;;;14.18;7.45;;;;;;;;;;4981886;28;20034;-73
2023/01/01 12:25:31;;;;;;;10.15;7.47;;;;;;;;;;4982357;28;21317;-74
2023/01/01 12:28:16;;;;;;;11.50;7.10;;;;;;;;;;4965196;28;20121;-73
2023/01/01 12:30:41;;;;;;;13.75;7.75;;;;;;;;;;4966401;28;20038;-73
2023/01/01 12:33:14;;;;;;;11.02;7.30;;;;;;;;;;4965747;28;20197;-74
2023/01/01 12:36:00;;;;;;;10.90;7.00;;;;;;;;;;4965691;28;20097;-72
2023/01/01 12:38:44;;;;;;;11.38;6.55;;;;;;;;;;4983460;28;20206;-74
2023/01/01 12:41:10;;;;;;;11.60;7.28;;;;;;;;;;4951708;28;20073;-75
2023/01/01 12:43:42;;;;;;;11.38;7.10;;;;;;;;;;4951435;28;20073;-73
2023/01/01 12:46:07;;;;;;;11.43;6.32;;;;;;;;;;4961818;28;20067;-73
2023/01/01 12:48:41;;;;;;;11.63;7.80;;;;;;;;;;4982641;28;20038;-74
2023/01/01 12:51:17;;;;;;;11.70;7.93;;;;;;;;;;4967529;28;20077;-70
2023/01/01 12:53:59;;;;;;;12.77;8.23;;;;;;;;;;4972649;28;20038;-69
2023/01/01 12:56:34;;;;;;;13.55;8.32;;;;;;;;;;4973966;28;20050;-73
2023/01/01 12:59:06;;;;;;;17.27;8.93;;;;;;;;;;4976381;28;20080;-72
2023/01/01 13:01:31;;;;;;;;;;;;;;;;;;4947579;28;20057;-74
2023/01/01 13:04:01;;;;;;;11.73;6.60;;;;;;;;;;4984358;28;19949;-71
2023/01/01 13:06:31;;;;;;;13.57;8.40;;;;;;;;;;4943644;28;20043;-73
2023/01/01 13:09:03;;;;;;;14.00;8.93;;;;;;;;;;4971903;28;20046;-72
2023/01/01 13:11:29;;;;;;;13.57;8.13;;;;;;;;;;4961902;28;20125;-71
2023/01/01 13:13:55;;;;;;;13.18;8.20;;;;;;;;;;4980559;28;20031;-72
2023/01/01 13:16:37;;;;;;;12.55;7.68;;;;;;;;;;4981709;28;20091;-74
2023/01/01 13:19:04;;;;;;;12.50;7.45;;;;;;;;;;4966321;28;20038;-73
2023/01/01 13:21:31;;;;;;;12.30;7.10;;;;;;;;;;4965031;28;20031;-73
2023/01/01 13:23:59;;;;;;;17.38;9.13;;;;;;;;;;4983143;28;20034;-72
2023/01/01 13:26:25;;;;;;;13.85;8.00;;;;;;;;;;4966495;28;20039;-73
2023/01/01 13:28:50;;;;;;;15.88;7.90;;;;;;;;;;4943049;28;20390;-70
2023/01/01 13:31:16;;;;;;;15.73;8.38;;;;;;;;;;4972821;28;20121;-73
2023/01/01 13:33:42;;;;;;;14.85;8.73;;;;;;;;;;4972932;28;20117;-72
2023/01/01 13:36:08;;;;;;;14.75;8.23;;;;;;;;;;4939877;28;20057;-71
2023/01/01 13:38:43;;;;;;;12.65;8.20;;;;;;;;;;4972351;28;20098;-72
2023/01/01 13:41:27;;;;;;;18.40;8.23;;;;;;;;;;4940352;28;20041;-71
2023/01/01 13:43:59;;;;;;;13.18;7.35;;;;;;;;;;4973189;28;20125;-71
2023/01/01 13:46:39;;;;;;;11.90;7.78;;;;;;;;;;4973369;28;20043;-71
2023/01/01 13:49:04;;;;;;;13.45;7.88;;;;;;;;;;4956188;28;20417;-73
2023/01/01 13:51:33;;;;;;;12.15;7.47;;;;;;;;;;4956550;28;20098;-74
2023/01/01 13:54:30;;;;;;;12.27;7.55;;;;;;;;;;4966668;28;20039;-71
2023/01/01 13:56:56;;;;;;;10.27;6.68;;;;;;;;;;4949522;28;20101;-69
2023/01/01 13:59:34;;;;;;;15.18;8.00;;;;;;;;;;4966424;28;20043;-69
2023/01/01 14:02:19;;;;;;;10.23;6.72;;;;;;;;;;4966083;28;20034;-68
2023/01/01 14:04:46;;;;;;;10.23;6.90;;;;;;;;;;4966644;28;20554;-73
2023/01/01 14:07:18;;;;;;;10.05;6.75;;;;;;;;;;4949076;28;20042;-70
2023/01/01 14:09:43;;;;;;;11.77;6.55;;;;;;;;;;4948302;28;20030;-74
2023/01/01 14:12:19;;;;;;;10.25;6.75;;;;;;;;;;4965287;28;20056;-70
2023/01/01 14:14:46;;;;;;;17.55;8.90;;;;;;;;;;4950055;28;20536;-69
2023/01/01 14:17:14;;;;;;;10.82;7.32;;;;;;;;;;4982255;28;20030;-69
2023/01/01 14:19:41;;;;;;;6.88;5.70;;;;;;;;;;4981990;28;20075;-70
2023/01/01 14:22:07;;;;;;;9.10;5.93;;;;;;;;;;4963569;28;20081;-69
2023/01/01 14:24:37;;;;;;;10.55;6.30;;;;;;;;;;4981820;28;20038;-68
2023/01/01 14:27:05;;;;;;;9.45;5.95;;;;;;;;;;4965842;28;20512;-70
2023/01/01 14:29:31;;;;;;;12.48;8.55;;;;;;;;;;4964600;28;20659;-70
2023/01/01 14:31:59;;;;;;;8.75;5.95;;;;;;;;;;4964844;28;20121;-70
2023/01/01 14:34:29;;;;;;;14.02;6.55;;;;;;;;;;4966838;28;20042;-70
2023/01/01 14:36:56;;;;;;;8.40;5.78;;;;;;;;;;4952653;28;20042;-73